createdAt,value
2022-08-11T00:02:26.369Z,49.92
2022-08-11T00:04:55.684Z,49.87
2022-08-11T00:07:24.613Z,50.12
2022-08-11T00:09:52.674Z,49.90
2022-08-11T00:12:19.374Z,49.69
2022-08-11T00:14:47.038Z,50.37
2022-08-11T00:17:15.717Z,49.65
2022-08-11T00:20:14.462Z,50.17
2022-08-11T00:22:35.272Z,50.12
2022-08-11T00:25:22.396Z,50.24
2022-08-11T00:27:49.224Z,50.41
2022-08-11T00:30:16.774Z,49.89
2022-08-11T00:32:46.384Z,49.67
2022-08-11T00:35:54.982Z,49.85
2022-08-11T00:38:06.836Z,49.33
2022-08-11T00:40:51.771Z,49.98
2022-08-11T00:43:33.317Z,49.88
2022-08-11T00:46:36.795Z,49.98
2022-08-11T00:49:30.302Z,50.48
2022-08-11T00:52:08.730Z,50.69
2022-08-11T00:55:07.855Z,50.25
2022-08-11T00:57:57.473Z,50.67
2022-08-11T01:00:32.102Z,50.29
2022-08-11T01:03:08.008Z,50.05
2022-08-11T01:05:38.721Z,50.70
2022-08-11T01:08:36.913Z,49.99
2022-08-11T01:11:23.356Z,50.55
2022-08-11T01:14:33.931Z,50.47
2022-08-11T01:17:52.793Z,50.56
2022-08-11T01:20:49.748Z,49.68
2022-08-11T01:23:54.119Z,50.17
2022-08-11T01:26:23.321Z,50.23
2022-08-11T01:29:13.427Z,50.49
2022-08-11T01:32:31.631Z,49.68
2022-08-11T01:35:24.758Z,50.18
2022-08-11T01:38:26.900Z,49.70
2022-08-11T01:41:09.924Z,49.90
2022-08-11T01:44:20.025Z,49.37
2022-08-11T01:46:52.206Z,49.54
2022-08-11T01:50:08.104Z,49.52
2022-08-11T01:52:35.381Z,49.44
2022-08-11T01:55:08.026Z,49.28
2022-08-11T01:57:42.318Z,49.39
2022-08-11T02:00:16.378Z,49.64
2022-08-11T02:02:53.968Z,49.74
2022-08-11T02:05:27.391Z,50.17
2022-08-11T02:08:33.141Z,49.70
2022-08-11T02:11:35.845Z,49.98
2022-08-11T02:14:14.963Z,50.07
2022-08-11T02:17:15.342Z,49.77
2022-08-11T02:20:20.452Z,49.13
2022-08-11T02:23:58.608Z,49.52
2022-08-11T02:26:09.597Z,50.17
2022-08-11T02:29:19.371Z,50.05
2022-08-11T02:32:28.806Z,50.25
2022-08-11T02:35:03.780Z,49.96
2022-08-11T02:37:33.433Z,50.03
2022-08-11T02:40:10.596Z,50.36
2022-08-11T02:42:55.739Z,50.20
2022-08-11T02:46:04.803Z,49.91
2022-08-11T02:49:18.094Z,50.42
2022-08-11T02:52:00.056Z,50.38
2022-08-11T02:54:42.407Z,50.69
2022-08-11T02:57:29.099Z,50.87
2022-08-11T03:00:14.915Z,51.06
2022-08-11T03:02:56.719Z,51.00
2022-08-11T03:05:52.993Z,50.71
2022-08-11T03:08:42.324Z,50.98
2022-08-11T03:11:36.414Z,50.69
2022-08-11T03:14:43.407Z,50.77
2022-08-11T03:17:34.253Z,51.33
2022-08-11T03:20:15.524Z,50.80
2022-08-11T03:23:20.025Z,50.82
2022-08-11T03:26:24.638Z,51.01
2022-08-11T03:29:18.302Z,51.09
2022-08-11T03:32:21.613Z,50.97
2022-08-11T03:34:50.721Z,51.54
2022-08-11T03:37:38.823Z,51.93
2022-08-11T03:40:55.477Z,52.16
2022-08-11T03:43:36.893Z,51.85
2022-08-11T03:46:27.457Z,52.10
2022-08-11T03:49:11.384Z,52.03
2022-08-11T03:51:52.448Z,51.70
2022-08-11T03:54:43.853Z,52.28
2022-08-11T03:57:52.405Z,52.15
2022-08-11T04:00:56.828Z,52.06
2022-08-11T04:03:47.215Z,52.61
2022-08-11T04:06:41.531Z,52.51
2022-08-11T04:09:27.510Z,52.65
2022-08-11T04:12:14.761Z,53.09
2022-08-11T04:16:00.645Z,52.57
2022-08-11T04:19:13.244Z,52.25
2022-08-11T04:21:51.730Z,52.33
2022-08-11T04:24:38.400Z,52.25
2022-08-11T04:27:45.000Z,52.31
2022-08-11T04:30:29.638Z,52.02
2022-08-11T04:32:59.969Z,52.10
2022-08-11T04:35:31.096Z,51.97
2022-08-11T04:38:29.505Z,52.18
2022-08-11T04:41:15.145Z,52.33
2022-08-11T04:44:13.947Z,52.36
2022-08-11T04:47:03.897Z,52.25
2022-08-11T04:50:14.298Z,52.18
2022-08-11T04:53:23.394Z,52.01
2022-08-11T04:56:26.686Z,52.15
2022-08-11T04:59:15.001Z,52.61
2022-08-11T05:02:17.757Z,53.51
2022-08-11T05:05:33.276Z,53.67
2022-08-11T05:08:37.700Z,53.80
2022-08-11T05:11:35.928Z,53.42
2022-08-11T05:14:46.327Z,54.00
2022-08-11T05:17:36.888Z,53.56
2022-08-11T05:20:22.806Z,52.67
2022-08-11T05:23:10.202Z,48.19
2022-08-11T05:26:44.141Z,44.24
2022-08-11T05:29:19.333Z,39.63
2022-08-11T05:32:17.393Z,37.41
2022-08-11T05:34:52.927Z,35.34
2022-08-11T05:37:30.318Z,34.62
2022-08-11T05:40:28.373Z,33.50
2022-08-11T05:43:31.404Z,32.63
2022-08-11T05:46:22.796Z,31.77
2022-08-11T05:49:11.699Z,31.02
2022-08-11T05:52:05.475Z,30.41
2022-08-11T05:55:06.359Z,29.55
2022-08-11T05:57:38.553Z,28.75
2022-08-11T06:00:17.192Z,28.61
2022-08-11T06:02:49.067Z,28.83
2022-08-11T06:05:16.443Z,28.42
2022-08-11T06:07:49.516Z,28.79
2022-08-11T06:10:37.725Z,28.45
2022-08-11T06:13:06.555Z,27.64
2022-08-11T06:15:43.593Z,28.11
2022-08-11T06:18:12.252Z,27.70
2022-08-11T06:20:54.031Z,27.87
2022-08-11T06:23:23.798Z,27.78
2022-08-11T06:25:52.405Z,26.99
2022-08-11T06:28:21.335Z,27.09
2022-08-11T06:30:48.938Z,26.83
2022-08-11T06:33:31.257Z,26.60
2022-08-11T06:36:09.803Z,26.36
2022-08-11T06:39:04.190Z,26.35
2022-08-11T06:41:54.238Z,26.40
2022-08-11T06:44:32.243Z,26.36
2022-08-11T06:47:08.719Z,26.20
2022-08-11T06:49:58.319Z,26.73
2022-08-11T06:52:35.920Z,26.35
2022-08-11T06:55:57.727Z,25.58
2022-08-11T06:58:16.517Z,25.51
2022-08-11T07:00:47.146Z,25.39
2022-08-11T07:03:17.757Z,25.28
2022-08-11T07:06:01.924Z,25.35
2022-08-11T07:09:38.350Z,25.09
2022-08-11T07:12:41.870Z,25.64
2022-08-11T07:16:10.781Z,25.50
2022-08-11T07:18:47.223Z,25.25
2022-08-11T07:21:43.077Z,25.80
2022-08-11T07:24:59.317Z,24.70
2022-08-11T07:28:04.706Z,24.17
2022-08-11T07:30:34.701Z,24.20
2022-08-11T07:33:03.653Z,24.09
2022-08-11T07:35:35.132Z,24.29
2022-08-11T07:38:07.147Z,24.45
2022-08-11T07:40:35.861Z,24.64
2022-08-11T07:43:03.673Z,23.87
2022-08-11T07:45:49.179Z,24.08
2022-08-11T07:48:35.833Z,24.80
2022-08-11T07:51:21.787Z,24.23
2022-08-11T07:53:57.824Z,24.71
2022-08-11T07:56:54.205Z,25.09
2022-08-11T08:00:00.407Z,24.92
2022-08-11T08:02:38.296Z,24.30
2022-08-11T08:05:25.590Z,24.27
2022-08-11T08:08:10.962Z,24.97
2022-08-11T08:10:57.377Z,25.10
2022-08-11T08:13:42.806Z,25.21
2022-08-11T08:16:30.067Z,25.48
2022-08-11T08:18:57.101Z,26.17
2022-08-11T08:21:23.921Z,25.54
2022-08-11T08:23:53.086Z,24.86
2022-08-11T08:26:42.008Z,26.03
2022-08-11T08:29:33.386Z,24.54
2022-08-11T08:32:02.675Z,25.83
2022-08-11T08:34:32.450Z,26.00
2022-08-11T08:37:00.863Z,26.01
2022-08-11T08:39:27.849Z,26.01
2022-08-11T08:41:56.990Z,25.61
2022-08-11T08:44:42.091Z,25.37
2022-08-11T08:47:41.001Z,25.59
2022-08-11T08:50:07.351Z,25.34
2022-08-11T08:52:43.962Z,26.65
2022-08-11T08:55:18.371Z,26.95
2022-08-11T08:57:48.653Z,26.19
2022-08-11T09:00:22.300Z,27.92
2022-08-11T09:02:51.818Z,28.16
2022-08-11T09:05:19.752Z,28.20
2022-08-11T09:07:51.050Z,27.96
2022-08-11T09:10:19.474Z,27.23
2022-08-11T09:12:47.321Z,27.94
2022-08-11T09:15:15.168Z,28.12
2022-08-11T09:17:50.209Z,28.87
2022-08-11T09:20:22.430Z,29.23
2022-08-11T09:24:06.463Z,29.56
2022-08-11T09:26:18.036Z,29.54
2022-08-11T09:28:46.474Z,28.23
2022-08-11T09:31:14.526Z,28.40
2022-08-11T09:33:44.682Z,29.14
2022-08-11T09:36:31.995Z,29.24
2022-08-11T09:39:19.210Z,29.49
2022-08-11T09:42:01.322Z,28.75
2022-08-11T09:44:49.838Z,29.30
2022-08-11T09:47:23.367Z,29.53
2022-08-11T09:49:53.153Z,29.34
2022-08-11T09:52:21.534Z,29.93
2022-08-11T09:54:50.588Z,29.33
2022-08-11T09:57:40.879Z,29.77
2022-08-11T10:00:13.552Z,29.87
2022-08-11T10:02:43.841Z,30.93
2022-08-11T10:05:33.000Z,30.59
2022-08-11T10:08:01.593Z,30.47
2022-08-11T10:10:29.658Z,30.54
2022-08-11T10:13:02.873Z,30.05
2022-08-11T10:15:40.278Z,30.26
2022-08-11T10:18:51.384Z,30.63
2022-08-11T10:21:28.217Z,30.55
2022-08-11T10:24:17.337Z,30.83
2022-08-11T10:26:57.058Z,31.74
2022-08-11T10:29:50.225Z,29.18
2022-08-11T10:32:57.736Z,29.22
2022-08-11T10:35:26.779Z,29.69
2022-08-11T10:38:06.118Z,28.43
2022-08-11T10:40:36.137Z,29.11
2022-08-11T10:43:03.938Z,28.97
2022-08-11T10:45:52.255Z,29.60
2022-08-11T10:48:21.219Z,28.97
2022-08-11T10:51:08.335Z,28.65
2022-08-11T10:53:59.070Z,28.46
2022-08-11T10:56:47.585Z,28.42
2022-08-11T10:59:15.543Z,28.36
2022-08-11T11:01:44.286Z,27.61
2022-08-11T11:04:16.902Z,27.47
2022-08-11T11:07:02.009Z,27.76
2022-08-11T11:09:32.201Z,27.93
2022-08-11T11:12:25.582Z,28.40
2022-08-11T11:15:17.509Z,28.88
2022-08-11T11:18:01.905Z,28.80
2022-08-11T11:20:45.070Z,28.48
2022-08-11T11:23:25.683Z,29.49
2022-08-11T11:26:27.721Z,29.27
2022-08-11T11:29:10.853Z,28.47
2022-08-11T11:32:15.259Z,28.02
2022-08-11T11:35:16.116Z,28.32
2022-08-11T11:38:03.668Z,27.41
2022-08-11T11:40:33.627Z,26.88
2022-08-11T11:43:01.761Z,26.99
2022-08-11T11:45:28.690Z,27.51
2022-08-11T11:47:58.479Z,27.42
2022-08-11T11:50:31.432Z,26.80
2022-08-11T11:53:00.469Z,26.61
2022-08-11T11:55:28.222Z,27.15
2022-08-11T11:58:18.483Z,26.80
2022-08-11T12:01:05.257Z,26.71
2022-08-11T12:03:33.921Z,26.06
2022-08-11T12:06:02.491Z,27.36
2022-08-11T12:08:29.641Z,25.61
2022-08-11T12:11:18.530Z,25.96
2022-08-11T12:13:50.376Z,27.06
2022-08-11T12:16:35.327Z,26.97
2022-08-11T12:19:05.958Z,26.78
2022-08-11T12:21:35.856Z,26.74
2022-08-11T12:24:22.412Z,27.70
2022-08-11T12:26:54.310Z,28.64
2022-08-11T12:29:36.546Z,26.40
2022-08-11T12:32:08.873Z,27.39
2022-08-11T12:34:36.945Z,26.38
2022-08-11T12:37:06.917Z,27.06
2022-08-11T12:40:16.599Z,27.77
2022-08-11T12:43:21.125Z,27.41
2022-08-11T12:45:58.217Z,27.08
2022-08-11T12:49:01.225Z,27.77
2022-08-11T12:52:13.351Z,26.29
2022-08-11T12:54:47.901Z,26.40
2022-08-11T12:57:45.212Z,26.14
2022-08-11T13:00:31.826Z,26.02
2022-08-11T13:03:17.878Z,26.78
2022-08-11T13:05:47.139Z,26.75
2022-08-11T13:08:17.146Z,26.64
2022-08-11T13:11:04.485Z,26.97
2022-08-11T13:13:54.906Z,26.62
2022-08-11T13:16:20.491Z,28.33
2022-08-11T13:18:47.533Z,27.62
2022-08-11T13:21:20.644Z,27.49
2022-08-11T13:24:00.588Z,26.26
2022-08-11T13:26:46.627Z,25.20
2022-08-11T13:29:22.284Z,25.65
2022-08-11T13:31:50.594Z,26.41
2022-08-11T13:34:20.039Z,26.10
2022-08-11T13:36:51.871Z,26.12
2022-08-11T13:39:19.320Z,27.15
2022-08-11T13:41:48.806Z,27.17
2022-08-11T13:44:23.263Z,27.52
2022-08-11T13:46:54.091Z,28.04
2022-08-11T13:49:21.880Z,27.81
2022-08-11T13:51:49.830Z,27.93
2022-08-11T13:54:19.542Z,27.61
2022-08-11T13:56:49.548Z,28.07
2022-08-11T13:59:30.053Z,28.15
2022-08-11T14:02:22.552Z,27.82
2022-08-11T14:04:57.472Z,27.22
2022-08-11T14:07:34.757Z,27.48
2022-08-11T14:10:02.698Z,28.37
2022-08-11T14:12:53.888Z,28.39
2022-08-11T14:15:25.522Z,27.65
2022-08-11T14:17:56.829Z,26.68
2022-08-11T14:20:39.673Z,27.90
2022-08-11T14:23:14.072Z,27.19
2022-08-11T14:26:02.311Z,25.84
2022-08-11T14:28:37.790Z,26.24
2022-08-11T14:31:09.311Z,26.66
2022-08-11T14:34:00.685Z,27.10
2022-08-11T14:36:26.799Z,27.20
2022-08-11T14:38:54.525Z,27.34
2022-08-11T14:42:10.037Z,27.41
2022-08-11T14:44:50.889Z,27.32
2022-08-11T14:47:23.932Z,26.67
2022-08-11T14:49:58.401Z,27.01
2022-08-11T14:52:38.296Z,26.93
2022-08-11T14:55:25.805Z,26.35
2022-08-11T14:57:55.475Z,26.48
2022-08-11T15:00:24.854Z,26.36
2022-08-11T15:03:10.741Z,27.29
2022-08-11T15:05:52.415Z,27.28
2022-08-11T15:08:47.366Z,26.00
2022-08-11T15:11:35.244Z,27.05
2022-08-11T15:14:05.104Z,27.36
2022-08-11T15:16:51.079Z,26.94
2022-08-11T15:19:20.976Z,26.77
2022-08-11T15:22:07.894Z,26.80
2022-08-11T15:24:36.276Z,26.88
2022-08-11T15:27:25.598Z,26.71
2022-08-11T15:30:18.279Z,26.72
2022-08-11T15:33:21.570Z,26.52
2022-08-11T15:36:08.617Z,26.71
2022-08-11T15:38:39.972Z,26.31
2022-08-11T15:41:26.701Z,26.96
2022-08-11T15:44:14.111Z,27.08
2022-08-11T15:46:43.883Z,27.14
2022-08-11T15:49:22.011Z,27.28
2022-08-11T15:51:55.214Z,26.50
2022-08-11T15:54:26.879Z,26.70
2022-08-11T15:56:55.350Z,27.38
2022-08-11T15:59:43.797Z,27.11
2022-08-11T16:02:34.447Z,26.85
2022-08-11T16:05:06.859Z,27.04
2022-08-11T16:07:40.718Z,27.54
2022-08-11T16:10:21.921Z,26.71
2022-08-11T16:13:06.076Z,26.62
2022-08-11T16:15:55.799Z,26.56
2022-08-11T16:18:40.610Z,26.99
2022-08-11T16:21:33.993Z,27.07
2022-08-11T16:24:01.843Z,26.86
2022-08-11T16:27:09.501Z,26.94
2022-08-11T16:29:19.751Z,26.80
2022-08-11T16:32:06.839Z,27.42
2022-08-11T16:34:53.501Z,27.67
2022-08-11T16:37:41.784Z,27.68
2022-08-11T16:40:09.831Z,27.85
2022-08-11T16:43:04.378Z,27.96
2022-08-11T16:45:58.722Z,27.89
2022-08-11T16:48:35.133Z,27.83
2022-08-11T16:51:06.391Z,28.43
2022-08-11T16:53:45.977Z,28.50
2022-08-11T16:56:27.125Z,28.81
2022-08-11T16:59:17.008Z,28.45
2022-08-11T17:01:53.179Z,27.93
2022-08-11T17:04:57.527Z,28.55
2022-08-11T17:07:44.215Z,28.37
2022-08-11T17:10:51.089Z,28.34
2022-08-11T17:13:33.625Z,28.83
2022-08-11T17:16:09.211Z,28.55
2022-08-11T17:18:58.201Z,28.67
2022-08-11T17:21:33.664Z,28.71
2022-08-11T17:24:08.772Z,28.73
2022-08-11T17:26:57.574Z,29.24
2022-08-11T17:29:34.277Z,28.90
2022-08-11T17:32:56.286Z,29.13
2022-08-11T17:35:32.977Z,29.06
2022-08-11T17:38:10.596Z,29.73
2022-08-11T17:40:40.146Z,29.37
2022-08-11T17:43:27.569Z,29.68
2022-08-11T17:46:05.121Z,29.59
2022-08-11T17:48:47.937Z,30.03
2022-08-11T17:51:38.268Z,29.84
2022-08-11T17:54:25.932Z,29.81
2022-08-11T17:57:20.325Z,30.04
2022-08-11T17:59:52.726Z,30.01
2022-08-11T18:02:42.118Z,29.78
2022-08-11T18:05:13.379Z,30.39
2022-08-11T18:08:03.909Z,30.22
2022-08-11T18:10:51.394Z,30.21
2022-08-11T18:13:40.673Z,29.98
2022-08-11T18:16:26.909Z,30.45
2022-08-11T18:19:12.067Z,30.38
2022-08-11T18:22:14.598Z,30.47
2022-08-11T18:25:07.272Z,30.47
2022-08-11T18:27:53.520Z,30.80
2022-08-11T18:30:39.247Z,31.22
2022-08-11T18:36:38.873Z,31.99
2022-08-11T18:39:27.907Z,32.30
2022-08-11T18:42:18.883Z,32.18
2022-08-11T18:45:17.874Z,32.68
2022-08-11T18:48:06.088Z,33.16
2022-08-11T18:51:00.653Z,33.07
2022-08-11T18:54:00.896Z,34.04
2022-08-11T18:56:48.667Z,33.69
2022-08-11T18:59:38.563Z,33.71
2022-08-11T19:02:25.245Z,33.29
2022-08-11T19:05:11.459Z,33.71
2022-08-11T19:07:58.585Z,33.31
2022-08-11T19:10:44.492Z,33.51
2022-08-11T19:13:31.657Z,33.87
2022-08-11T19:16:17.117Z,34.67
2022-08-11T19:19:05.617Z,35.00
2022-08-11T19:21:51.839Z,35.42
2022-08-11T19:24:38.103Z,34.88
2022-08-11T19:27:25.246Z,35.80
2022-08-11T19:30:13.997Z,35.94
2022-08-11T19:33:03.679Z,36.13
2022-08-11T19:35:50.050Z,35.70
2022-08-11T19:38:37.013Z,36.22
2022-08-11T19:41:51.771Z,36.55
2022-08-11T19:44:30.573Z,37.65
2022-08-11T19:47:17.400Z,38.24
2022-08-11T19:50:04.609Z,38.29
2022-08-11T19:52:50.758Z,37.77
2022-08-11T19:55:36.586Z,38.54
2022-08-11T19:58:25.846Z,38.59
2022-08-11T20:01:11.475Z,38.68
2022-08-11T20:03:56.798Z,38.70
2022-08-11T20:06:42.722Z,39.11
2022-08-11T20:10:05.413Z,39.44
2022-08-11T20:12:36.034Z,39.68
2022-08-11T20:15:22.995Z,39.25
2022-08-11T20:18:08.694Z,39.80
2022-08-11T20:20:54.363Z,39.59
2022-08-11T20:23:40.504Z,39.67
2022-08-11T20:26:31.276Z,40.68
2022-08-11T20:29:18.982Z,40.29
2022-08-11T20:32:06.558Z,39.65
2022-08-11T20:34:56.451Z,39.96
2022-08-11T20:37:46.641Z,40.03
2022-08-11T20:40:36.283Z,39.54
2022-08-11T20:44:06.808Z,39.47
2022-08-11T20:46:29.533Z,40.21
2022-08-11T20:49:16.222Z,40.17
2022-08-11T20:52:06.092Z,40.27
2022-08-11T20:54:53.132Z,40.37
2022-08-11T20:58:00.119Z,40.33
2022-08-11T21:00:46.125Z,39.95
2022-08-11T21:03:36.191Z,40.30
2022-08-11T21:06:31.310Z,39.98
2022-08-11T21:09:20.874Z,39.56
2022-08-11T21:12:13.351Z,40.33
2022-08-11T21:14:59.183Z,40.50
2022-08-11T21:18:00.911Z,40.46
2022-08-11T21:20:58.001Z,41.49
2022-08-11T21:23:46.115Z,41.28
2022-08-11T21:26:36.608Z,41.11
2022-08-11T21:29:24.771Z,41.75
2022-08-11T21:32:13.441Z,41.65
2022-08-11T21:35:00.690Z,41.49
2022-08-11T21:37:50.175Z,41.81
2022-08-11T21:40:37.588Z,42.80
2022-08-11T21:43:24.983Z,42.55
2022-08-11T21:46:11.945Z,42.65
2022-08-11T21:48:59.007Z,42.12
2022-08-11T21:51:44.560Z,42.75
2022-08-11T21:54:30.826Z,42.82
2022-08-11T21:57:17.461Z,42.78
2022-08-11T22:00:09.793Z,43.62
2022-08-11T22:02:59.143Z,43.03
2022-08-11T22:05:47.184Z,43.62
2022-08-11T22:08:33.672Z,43.63
2022-08-11T22:11:32.025Z,44.25
2022-08-11T22:14:21.296Z,44.10
2022-08-11T22:17:06.405Z,44.77
2022-08-11T22:19:54.671Z,43.98
2022-08-11T22:22:49.155Z,44.11
2022-08-11T22:25:39.142Z,44.30
2022-08-11T22:28:36.436Z,45.01
2022-08-11T22:31:23.815Z,44.98
2022-08-11T22:34:09.127Z,44.93
2022-08-11T22:36:55.415Z,44.76
2022-08-11T22:39:42.563Z,45.92
2022-08-11T22:42:33.586Z,45.25
2022-08-11T22:45:20.270Z,46.18
2022-08-11T22:48:06.544Z,45.97
2022-08-11T22:50:54.847Z,45.36
2022-08-11T22:53:58.626Z,46.28
2022-08-11T22:56:46.779Z,46.37
2022-08-11T22:59:34.982Z,46.40
2022-08-11T23:02:21.566Z,46.38
2022-08-11T23:05:11.023Z,46.90
2022-08-11T23:07:56.881Z,46.85
2022-08-11T23:10:43.068Z,47.00
2022-08-11T23:13:28.982Z,46.43
2022-08-11T23:16:14.787Z,46.99
2022-08-11T23:19:00.592Z,46.73
2022-08-11T23:21:46.935Z,46.55
2022-08-11T23:24:32.928Z,46.74
2022-08-11T23:27:18.738Z,46.24
2022-08-11T23:30:06.620Z,46.05
2022-08-11T23:32:53.769Z,45.84
2022-08-11T23:35:53.657Z,46.23
2022-08-11T23:38:40.949Z,46.46
2022-08-11T23:41:26.377Z,46.69
2022-08-11T23:44:12.462Z,46.79
2022-08-11T23:46:59.300Z,46.04
2022-08-11T23:49:45.973Z,46.51
2022-08-11T23:52:33.377Z,46.11
2022-08-11T23:55:18.630Z,46.98
2022-08-11T23:58:03.862Z,46.59
